Ozark, AL (36360)

4:36 PM CDT on May 30, 2015 (GMT -0500)
Fort Rucker / Ozark | | Change Station
CLOSE
Current Station
Airport
Location: Fort Rucker / Ozark,
Elevation: 318 ft
Nearby Weather Stations

Elev 318 ft 31.35 °N, 85.65 °W | Updated 43 minutes ago

Clear
Clear
87 °F
Feels Like 87 °F
N
5
Wind Variable Wind from Variable

Today
High -- | Low -- °F
--% Chance of Precip.
Yesterday
High -- | Low -- °F
Precip. -- in
5:39 AM 7:41 PM
Waxing Gibbous, 92% visible
Pressure 29.70 in
Visibility 10.0 miles
Clouds Clear
Heat Index 87 °F
Dew Point 61 °F
Humidity 41%
Rainfall 0.00 in
Snow Depth Not available.
UV 7 out of 12
Pollen 4.30 out of 12
Air Quality Not available.
Flu Activity Sporadic
METAR KHEY 302053Z AUTO VRB04KT 10SM CLR 31/16 A3004 RMK AO2 SLP058 T03060161 57021 $

More Conditions Fewer Conditions

Pressure 29.70 in
Visibility 10.0 miles
Clouds Clear
Heat Index 87 °F
Dew Point 61 °F
Humidity 41%
Rainfall 0.00 in
Snow Depth Not available.
UV 7 out of 12
Pollen 4.30 out of 12
Air Quality Not available.
Flu Activity Sporadic
METAR KHEY 302053Z AUTO VRB04KT 10SM CLR 31/16 A3004 RMK AO2 SLP058 T03060161 57021 $

More Conditions Fewer Conditions

10-Day Weather Forecast

Almanac

Astronomy

May. 30, 2015 Rise Set
Actual Time
Civil Twilight
Nautical Twilight
Astronomical Twilight
Moon
Length of Visible Light
Length of Day
Tomorrow will be .
, % of the Moon is Illuminated

Today's Extremes

State Highs State Lows

Community

WunderPhotos

Upload Photos

1,825,606 photos uploaded!

WunderBlogs® & News

Nearby

Air Quality

  Air Quality AQ Index Pollutant
Not available.

Snow Depth

Station Depth Elevation

Earthquake Activity

City Distance Mag. Time & Date
Minimum magnitude displayed is 2.5.

Coastal Water Temperatures

Place Temperature

Stations

Nearby Weather Stations

Station Location Temp. Windchill Dew Point Humidity Wind Precip. Elev Updated Type